Time;durP1;ratioP1;P1;durP2;ratioP2;P2;SDS_P1;SDS_P2;PMS_P1;PMS_P2;Temp;Humidity;BMP_temperature;BMP_pressure;BME280_temperature;BME280_humidity;BME280_pressure;Samples;Min_cycle;Max_cycle;Signal;HPM_P1;HPM_P2
2022/10/02 00:00:15;;;;;;;4.78;2.08;;;;;;;;;;4975048;28;20051;-88
2022/10/02 00:02:46;;;;;;;5.13;2.88;;;;;;;;;;4973265;28;20250;-88
2022/10/02 00:05:14;;;;;;;5.95;2.17;;;;;;;;;;4974344;28;20058;-88
2022/10/02 00:07:44;;;;;;;4.57;2.30;;;;;;;;;;4973985;28;20444;-87
2022/10/02 00:10:15;;;;;;;3.50;2.55;;;;;;;;;;4980539;28;20046;-88
2022/10/02 00:12:42;;;;;;;3.90;2.80;;;;;;;;;;4980530;28;20046;-88
2022/10/02 00:15:13;;;;;;;4.15;2.55;;;;;;;;;;4974985;28;20046;-88
2022/10/02 00:17:42;;;;;;;5.50;2.78;;;;;;;;;;4982005;28;20054;-89
2022/10/02 00:20:13;;;;;;;3.72;2.60;;;;;;;;;;4973941;28;20050;-88
2022/10/02 00:22:44;;;;;;;5.15;2.50;;;;;;;;;;4974919;28;20051;-87
2022/10/02 00:25:16;;;;;;;4.53;2.50;;;;;;;;;;4974992;28;20054;-88
2022/10/02 00:27:49;;;;;;;5.57;3.25;;;;;;;;;;4980013;28;20069;-88
2022/10/02 00:30:17;;;;;;;6.68;2.72;;;;;;;;;;4978439;28;20065;-87
2022/10/02 00:32:49;;;;;;;6.75;2.58;;;;;;;;;;4981064;28;20062;-84
2022/10/02 00:35:29;;;;;;;4.90;2.15;;;;;;;;;;4991663;28;20057;-86
2022/10/02 00:38:01;;;;;;;5.80;2.65;;;;;;;;;;4978169;28;20060;-83
2022/10/02 00:40:36;;;;;;;4.78;2.20;;;;;;;;;;4987490;28;20031;-84
2022/10/02 00:43:14;;;;;;;3.88;2.20;;;;;;;;;;4978899;28;20357;-85
2022/10/02 00:46:01;;;;;;;8.70;1.92;;;;;;;;;;4988229;28;20375;-87
2022/10/02 00:48:36;;;;;;;3.33;1.63;;;;;;;;;;4968412;28;20479;-87
2022/10/02 00:51:08;;;;;;;5.78;2.40;;;;;;;;;;4989654;28;20061;-87
2022/10/02 00:53:41;;;;;;;4.65;2.00;;;;;;;;;;4993342;28;20046;-87
2022/10/02 00:56:12;;;;;;;3.60;1.85;;;;;;;;;;4988820;28;20461;-88
2022/10/02 00:58:56;;;;;;;2.72;1.67;;;;;;;;;;4993180;28;20687;-88
2022/10/02 01:01:23;;;;;;;3.60;1.70;;;;;;;;;;4961366;28;20057;-87
2022/10/02 01:03:53;;;;;;;4.45;2.05;;;;;;;;;;4992969;28;20046;-87
2022/10/02 01:06:23;;;;;;;4.68;1.80;;;;;;;;;;4992513;28;20697;-88
2022/10/02 01:08:50;;;;;;;3.80;1.70;;;;;;;;;;4992753;28;20050;-88
2022/10/02 01:11:17;;;;;;;4.25;1.80;;;;;;;;;;4992762;28;20056;-87
2022/10/02 01:13:45;;;;;;;2.55;1.38;;;;;;;;;;4996985;28;20814;-86
2022/10/02 01:16:12;;;;;;;3.30;1.40;;;;;;;;;;4994258;28;20039;-88
2022/10/02 01:18:39;;;;;;;3.17;1.60;;;;;;;;;;4992998;28;20137;-87
2022/10/02 01:21:08;;;;;;;3.25;1.88;;;;;;;;;;4988872;28;20059;-88
2022/10/02 01:23:39;;;;;;;3.97;1.88;;;;;;;;;;4984025;28;20065;-88
2022/10/02 01:26:07;;;;;;;3.70;2.15;;;;;;;;;;4992264;28;20042;-88
2022/10/02 01:28:34;;;;;;;3.05;1.60;;;;;;;;;;5002652;28;20046;-88
2022/10/02 01:31:01;;;;;;;4.65;1.50;;;;;;;;;;5011258;28;20061;-86
2022/10/02 01:33:28;;;;;;;5.28;1.60;;;;;;;;;;4997089;28;20058;-87
2022/10/02 01:35:54;;;;;;;2.22;1.55;;;;;;;;;;4996470;28;20078;-88
2022/10/02 01:38:23;;;;;;;2.78;1.52;;;;;;;;;;4996336;28;20057;-87
2022/10/02 01:40:50;;;;;;;4.30;1.83;;;;;;;;;;4996499;28;20064;-86
2022/10/02 01:43:18;;;;;;;3.10;1.55;;;;;;;;;;4996354;28;20053;-87
2022/10/02 01:45:52;;;;;;;2.17;1.50;;;;;;;;;;5003559;28;20061;-87
2022/10/02 01:48:22;;;;;;;1.80;1.30;;;;;;;;;;4998512;28;20125;-87
2022/10/02 01:50:56;;;;;;;3.85;1.73;;;;;;;;;;4996344;28;20054;-87
2022/10/02 01:53:28;;;;;;;3.40;1.58;;;;;;;;;;4992880;28;20053;-88
2022/10/02 01:56:00;;;;;;;2.53;1.40;;;;;;;;;;4995772;28;20042;-89
2022/10/02 01:58:32;;;;;;;4.75;1.60;;;;;;;;;;4996230;28;20085;-89
2022/10/02 02:01:03;;;;;;;4.25;1.20;;;;;;;;;;4996631;28;20061;-88
2022/10/02 02:03:34;;;;;;;3.33;1.23;;;;;;;;;;4995903;28;20058;-87
2022/10/02 02:06:03;;;;;;;1.55;1.17;;;;;;;;;;4995669;28;20050;-88
2022/10/02 02:08:32;;;;;;;3.58;1.60;;;;;;;;;;4996164;28;20069;-88
2022/10/02 02:11:04;;;;;;;2.78;1.20;;;;;;;;;;4995602;28;20061;-88
2022/10/02 02:13:34;;;;;;;4.38;1.50;;;;;;;;;;4996780;28;20723;-87
2022/10/02 02:16:03;;;;;;;2.78;0.98;;;;;;;;;;4997759;28;20050;-87
2022/10/02 02:18:33;;;;;;;3.38;1.85;;;;;;;;;;4995510;28;20069;-88
2022/10/02 02:21:03;;;;;;;4.15;2.17;;;;;;;;;;4995388;28;20054;-87
2022/10/02 02:23:33;;;;;;;1.95;1.20;;;;;;;;;;4996289;28;20068;-88
2022/10/02 02:26:00;;;;;;;2.17;1.40;;;;;;;;;;4995924;28;20057;-88
2022/10/02 02:28:27;;;;;;;4.13;1.10;;;;;;;;;;4999760;28;20049;-87
2022/10/02 02:30:55;;;;;;;3.85;1.35;;;;;;;;;;5000106;28;20053;-87
2022/10/02 02:33:24;;;;;;;4.20;1.25;;;;;;;;;;4995392;28;20050;-87
2022/10/02 02:35:51;;;;;;;3.72;1.30;;;;;;;;;;4995815;28;20042;-87
2022/10/02 02:38:21;;;;;;;2.75;1.33;;;;;;;;;;4994582;28;20050;-87
2022/10/02 02:40:48;;;;;;;3.35;1.23;;;;;;;;;;4990622;28;20046;-88
2022/10/02 02:43:18;;;;;;;2.78;1.30;;;;;;;;;;4998148;28;20053;-88
2022/10/02 02:45:47;;;;;;;2.75;1.40;;;;;;;;;;5000809;28;20052;-87
2022/10/02 02:48:17;;;;;;;4.13;1.15;;;;;;;;;;4994891;28;20464;-88
2022/10/02 02:50:45;;;;;;;2.53;1.23;;;;;;;;;;4994444;28;20066;-89
2022/10/02 02:53:13;;;;;;;3.00;1.10;;;;;;;;;;4994899;28;20054;-87
2022/10/02 02:55:43;;;;;;;3.05;1.10;;;;;;;;;;4995043;28;20042;-88
2022/10/02 02:58:11;;;;;;;2.63;0.93;;;;;;;;;;4994604;28;20050;-87
2022/10/02 03:00:38;;;;;;;3.17;1.30;;;;;;;;;;4993605;28;20181;-88
2022/10/02 03:03:04;;;;;;;3.40;1.02;;;;;;;;;;4996770;28;20061;-87
2022/10/02 03:05:32;;;;;;;2.80;1.10;;;;;;;;;;4995287;28;20054;-88
2022/10/02 03:08:01;;;;;;;2.70;0.95;;;;;;;;;;4994456;28;20145;-89
2022/10/02 03:10:32;;;;;;;2.53;1.08;;;;;;;;;;4994441;28;20050;-87
2022/10/02 03:13:05;;;;;;;2.55;1.10;;;;;;;;;;4994501;28;20463;-87
2022/10/02 03:15:36;;;;;;;2.70;0.95;;;;;;;;;;4998779;28;20050;-87
2022/10/02 03:18:10;;;;;;;2.80;1.00;;;;;;;;;;4994915;28;20081;-88
2022/10/02 03:20:42;;;;;;;1.55;0.88;;;;;;;;;;4994751;28;20061;-87
2022/10/02 03:23:14;;;;;;;3.10;1.15;;;;;;;;;;4994789;28;20057;-87
2022/10/02 03:25:42;;;;;;;2.92;1.42;;;;;;;;;;4994238;28;20519;-88
2022/10/02 03:28:11;;;;;;;4.57;1.33;;;;;;;;;;4994330;28;20454;-87
2022/10/02 03:30:38;;;;;;;2.60;1.02;;;;;;;;;;5004482;28;20061;-88
2022/10/02 03:33:05;;;;;;;3.00;1.15;;;;;;;;;;4994337;28;20046;-86
2022/10/02 03:35:32;;;;;;;4.30;1.08;;;;;;;;;;4994248;28;20691;-87
2022/10/02 03:38:03;;;;;;;2.85;0.95;;;;;;;;;;4994035;28;20498;-89
2022/10/02 03:40:30;;;;;;;3.00;1.05;;;;;;;;;;4994642;28;20125;-87
2022/10/02 03:42:57;;;;;;;4.88;0.88;;;;;;;;;;4994314;28;20054;-87
2022/10/02 03:45:23;;;;;;;2.50;0.70;;;;;;;;;;5009900;28;20514;-86
2022/10/02 03:47:50;;;;;;;2.60;0.60;;;;;;;;;;4997747;28;20050;-87
2022/10/02 03:50:16;;;;;;;2.83;0.55;;;;;;;;;;4994089;28;20054;-87
2022/10/02 03:52:43;;;;;;;4.15;0.60;;;;;;;;;;4993357;28;20058;-87
2022/10/02 03:55:19;;;;;;;2.88;0.70;;;;;;;;;;4986035;28;20051;-88
2022/10/02 03:57:46;;;;;;;2.80;0.50;;;;;;;;;;4990567;28;20050;-88
2022/10/02 04:00:16;;;;;;;4.03;0.93;;;;;;;;;;4994799;28;20373;-88
2022/10/02 04:02:44;;;;;;;2.85;0.50;;;;;;;;;;4997314;28;20053;-87
2022/10/02 04:05:14;;;;;;;1.52;0.50;;;;;;;;;;4981935;28;20046;-88
2022/10/02 04:07:42;;;;;;;2.70;0.50;;;;;;;;;;4994294;28;20065;-88
2022/10/02 04:10:21;;;;;;;0.60;0.40;;;;;;;;;;4987897;28;20054;-88
2022/10/02 04:12:50;;;;;;;3.35;0.52;;;;;;;;;;4982607;28;20054;-88
2022/10/02 04:15:18;;;;;;;1.20;0.40;;;;;;;;;;4997691;28;20058;-88
2022/10/02 04:17:48;;;;;;;2.15;0.47;;;;;;;;;;4993711;28;20050;-88
2022/10/02 04:20:17;;;;;;;1.20;0.30;;;;;;;;;;4993652;28;20046;-88
2022/10/02 04:22:46;;;;;;;3.88;0.45;;;;;;;;;;4993725;28;20460;-88
2022/10/02 04:25:14;;;;;;;1.63;0.40;;;;;;;;;;4993850;28;20065;-88
2022/10/02 04:27:43;;;;;;;2.42;0.30;;;;;;;;;;4994330;28;20054;-89
2022/10/02 04:30:11;;;;;;;1.45;0.40;;;;;;;;;;5009541;28;20065;-88
2022/10/02 04:32:37;;;;;;;1.90;0.43;;;;;;;;;;4995703;28;20531;-88
2022/10/02 04:35:09;;;;;;;1.23;0.40;;;;;;;;;;4993802;28;20046;-88
2022/10/02 04:37:42;;;;;;;1.50;0.30;;;;;;;;;;4993239;28;20073;-88
2022/10/02 04:40:15;;;;;;;3.08;0.50;;;;;;;;;;4993386;28;20746;-89
2022/10/02 04:42:47;;;;;;;1.20;0.35;;;;;;;;;;4993197;28;20373;-88
2022/10/02 04:45:22;;;;;;;1.15;0.25;;;;;;;;;;4992801;28;20046;-89
2022/10/02 04:48:10;;;;;;;1.45;0.22;;;;;;;;;;4992973;28;20055;-89
2022/10/02 04:50:41;;;;;;;3.60;0.60;;;;;;;;;;4991726;28;20403;-89
2022/10/02 04:53:15;;;;;;;1.30;0.60;;;;;;;;;;4993057;28;20050;-89
2022/10/02 04:55:55;;;;;;;1.88;0.50;;;;;;;;;;4993911;28;20049;-89
2022/10/02 04:58:29;;;;;;;1.52;0.47;;;;;;;;;;4981835;28;20457;-89
2022/10/02 05:01:01;;;;;;;1.88;0.60;;;;;;;;;;5006020;28;20061;-89
2022/10/02 05:03:36;;;;;;;2.05;0.55;;;;;;;;;;4997838;28;20073;-89
2022/10/02 05:06:23;;;;;;;2.38;0.47;;;;;;;;;;4997305;28;20753;-87
2022/10/02 05:09:01;;;;;;;1.00;0.40;;;;;;;;;;4997345;28;20046;-89
2022/10/02 05:11:35;;;;;;;1.48;0.30;;;;;;;;;;4996010;28;20046;-87
2022/10/02 05:14:16;;;;;;;3.15;1.10;;;;;;;;;;4999227;28;20061;-88
2022/10/02 05:16:51;;;;;;;3.50;0.60;;;;;;;;;;4986477;28;20038;-88
2022/10/02 05:19:28;;;;;;;1.27;0.60;;;;;;;;;;4997005;28;20061;-88
2022/10/02 05:22:13;;;;;;;1.02;0.40;;;;;;;;;;4997123;28;20054;-88
2022/10/02 05:24:45;;;;;;;1.80;0.30;;;;;;;;;;4991004;28;20137;-87
2022/10/02 05:27:21;;;;;;;1.88;0.47;;;;;;;;;;4991471;28;20535;-88
2022/10/02 05:29:55;;;;;;;3.05;0.70;;;;;;;;;;5005080;28;20839;-88
2022/10/02 05:32:33;;;;;;;1.73;0.47;;;;;;;;;;4992538;28;20125;-88
2022/10/02 05:35:05;;;;;;;1.38;0.40;;;;;;;;;;4997192;28;20042;-88
2022/10/02 05:37:41;;;;;;;1.13;0.40;;;;;;;;;;4996517;28;20054;-88
2022/10/02 05:40:13;;;;;;;1.02;0.50;;;;;;;;;;4996913;28;20091;-88
2022/10/02 05:42:44;;;;;;;1.90;0.43;;;;;;;;;;4996642;28;20073;-88
2022/10/02 05:45:16;;;;;;;1.17;0.30;;;;;;;;;;5004991;28;20060;-88
2022/10/02 05:47:45;;;;;;;0.63;0.28;;;;;;;;;;4996746;28;20042;-88
2022/10/02 05:50:14;;;;;;;3.65;0.40;;;;;;;;;;4996458;28;20064;-88
2022/10/02 05:52:44;;;;;;;3.03;1.05;;;;;;;;;;4987599;28;20070;-88
2022/10/02 05:55:14;;;;;;;2.00;0.32;;;;;;;;;;4996937;28;20049;-89
2022/10/02 05:57:42;;;;;;;1.67;0.40;;;;;;;;;;4995931;28;20046;-88
2022/10/02 06:00:15;;;;;;;1.02;0.32;;;;;;;;;;5005583;28;20066;-88
2022/10/02 06:02:44;;;;;;;1.90;0.22;;;;;;;;;;5000929;28;20065;-89
2022/10/02 06:05:14;;;;;;;2.25;0.40;;;;;;;;;;4996205;28;20054;-88
2022/10/02 06:07:42;;;;;;;1.65;0.30;;;;;;;;;;4989890;28;20061;-89
2022/10/02 06:10:11;;;;;;;3.40;0.60;;;;;;;;;;4995710;28;20050;-89
2022/10/02 06:12:39;;;;;;;1.80;0.40;;;;;;;;;;4996063;28;20507;-88
2022/10/02 06:15:07;;;;;;;2.67;0.75;;;;;;;;;;4998907;28;20082;-88
2022/10/02 06:17:36;;;;;;;1.60;0.50;;;;;;;;;;4996407;28;20050;-88
2022/10/02 06:20:04;;;;;;;1.10;0.50;;;;;;;;;;4996144;28;20050;-88
2022/10/02 06:22:34;;;;;;;1.40;0.47;;;;;;;;;;4995724;28;20518;-88
2022/10/02 06:25:04;;;;;;;1.88;0.40;;;;;;;;;;4995840;28;20571;-88
2022/10/02 06:27:33;;;;;;;13.13;0.80;;;;;;;;;;4996044;28;20050;-88
2022/10/02 06:30:01;;;;;;;1.88;0.68;;;;;;;;;;4985511;28;20480;-88
2022/10/02 06:32:32;;;;;;;1.80;0.60;;;;;;;;;;4995429;28;20046;-88
2022/10/02 06:34:58;;;;;;;2.40;0.70;;;;;;;;;;4995878;28;20062;-89
2022/10/02 06:37:39;;;;;;;2.35;0.93;;;;;;;;;;4995677;28;20050;-89
2022/10/02 06:40:13;;;;;;;3.38;0.70;;;;;;;;;;4996215;28;20054;-86
2022/10/02 06:42:44;;;;;;;4.78;0.60;;;;;;;;;;4996397;28;20461;-87
2022/10/02 06:45:13;;;;;;;2.78;0.80;;;;;;;;;;5011560;28;20049;-87
2022/10/02 06:47:53;;;;;;;1.60;0.90;;;;;;;;;;5007406;28;20050;-88
2022/10/02 06:50:26;;;;;;;3.53;0.93;;;;;;;;;;5004242;28;20066;-88
2022/10/02 06:52:57;;;;;;;3.72;0.80;;;;;;;;;;5000833;28;20058;-88
2022/10/02 06:55:29;;;;;;;3.88;0.90;;;;;;;;;;5005117;28;20060;-87
2022/10/02 06:58:04;;;;;;;3.58;0.80;;;;;;;;;;5004060;28;20048;-88
2022/10/02 07:00:31;;;;;;;2.27;0.90;;;;;;;;;;5010110;28;20061;-88
2022/10/02 07:03:07;;;;;;;4.55;1.30;;;;;;;;;;4998292;28;20061;-88
2022/10/02 07:05:41;;;;;;;2.97;0.82;;;;;;;;;;4995890;28;20064;-89
2022/10/02 07:08:12;;;;;;;7.45;0.80;;;;;;;;;;4995472;28;20046;-88
2022/10/02 07:10:43;;;;;;;2.80;0.98;;;;;;;;;;4995295;28;20058;-87
2022/10/02 07:13:17;;;;;;;4.97;1.23;;;;;;;;;;4996163;28;20062;-88
2022/10/02 07:16:08;;;;;;;7.43;1.00;;;;;;;;;;5004628;28;20353;-88
2022/10/02 07:18:42;;;;;;;4.25;1.15;;;;;;;;;;4993557;28;20054;-88
2022/10/02 07:21:14;;;;;;;5.65;1.17;;;;;;;;;;5014504;28;20447;-88
2022/10/02 07:23:44;;;;;;;4.70;0.82;;;;;;;;;;5013144;28;20053;-89
2022/10/02 07:26:26;;;;;;;4.68;0.90;;;;;;;;;;5010543;28;20116;-88
2022/10/02 07:28:57;;;;;;;10.07;1.63;;;;;;;;;;5001611;28;20053;-87
2022/10/02 07:31:29;;;;;;;4.13;1.00;;;;;;;;;;5013450;28;20487;-88
2022/10/02 07:34:08;;;;;;;6.13;0.95;;;;;;;;;;5014355;28;20085;-87
2022/10/02 07:36:41;;;;;;;5.85;1.20;;;;;;;;;;5012253;28;20054;-87
2022/10/02 07:39:12;;;;;;;7.95;1.20;;;;;;;;;;5013501;28;20054;-87
2022/10/02 07:41:48;;;;;;;3.67;1.33;;;;;;;;;;5011809;28;20050;-88
2022/10/02 07:44:21;;;;;;;3.83;0.85;;;;;;;;;;5014636;28;20060;-88
2022/10/02 07:46:53;;;;;;;5.95;1.35;;;;;;;;;;5010203;28;20057;-88
2022/10/02 07:49:24;;;;;;;5.93;1.10;;;;;;;;;;5008480;28;20062;-88
2022/10/02 07:51:53;;;;;;;4.50;0.82;;;;;;;;;;5009788;28;20058;-88
2022/10/02 07:54:33;;;;;;;5.53;1.42;;;;;;;;;;5012805;28;20060;-88
2022/10/02 07:57:03;;;;;;;4.40;0.85;;;;;;;;;;5011364;28;20142;-86
2022/10/02 07:59:31;;;;;;;3.67;0.82;;;;;;;;;;5015303;28;20060;-88
2022/10/02 08:01:58;;;;;;;2.85;0.77;;;;;;;;;;5012775;28;20369;-87
2022/10/02 08:04:28;;;;;;;1.58;0.65;;;;;;;;;;5004874;28;20424;-88
2022/10/02 08:06:57;;;;;;;3.38;1.02;;;;;;;;;;5001312;28;20056;-87
2022/10/02 08:09:30;;;;;;;7.05;0.95;;;;;;;;;;4995654;28;20050;-88
2022/10/02 08:12:00;;;;;;;4.05;1.00;;;;;;;;;;5008158;28;20062;-87
2022/10/02 08:14:29;;;;;;;3.70;0.85;;;;;;;;;;5013610;28;20050;-88
2022/10/02 08:16:57;;;;;;;3.55;1.00;;;;;;;;;;4999983;28;20055;-88
2022/10/02 08:19:26;;;;;;;4.90;1.40;;;;;;;;;;5013260;28;20054;-88
2022/10/02 08:21:56;;;;;;;5.15;1.10;;;;;;;;;;4997178;28;20050;-88
2022/10/02 08:24:24;;;;;;;3.50;1.35;;;;;;;;;;5013517;28;20050;-88
2022/10/02 08:26:53;;;;;;;3.92;1.25;;;;;;;;;;5019933;28;20049;-88
2022/10/02 08:29:24;;;;;;;3.80;0.77;;;;;;;;;;5013931;28;20062;-88
2022/10/02 08:31:51;;;;;;;6.97;1.50;;;;;;;;;;5004081;28;20064;-88
2022/10/02 08:34:19;;;;;;;4.70;1.00;;;;;;;;;;5011121;28;20045;-87
2022/10/02 08:36:59;;;;;;;4.05;1.20;;;;;;;;;;5009942;28;20080;-87
2022/10/02 08:39:35;;;;;;;4.72;1.08;;;;;;;;;;5010295;28;20061;-87
2022/10/02 08:42:18;;;;;;;3.65;0.90;;;;;;;;;;4999265;28;20046;-88
2022/10/02 08:45:03;;;;;;;3.55;0.90;;;;;;;;;;5014028;28;20049;-89
2022/10/02 08:47:50;;;;;;;4.83;0.70;;;;;;;;;;5012637;28;20627;-88
2022/10/02 08:50:32;;;;;;;4.25;0.90;;;;;;;;;;5003039;28;20061;-88
2022/10/02 08:53:14;;;;;;;6.60;1.27;;;;;;;;;;5012272;28;20399;-88
2022/10/02 08:55:47;;;;;;;5.22;1.33;;;;;;;;;;5007449;28;20053;-87
2022/10/02 08:58:37;;;;;;;6.18;1.45;;;;;;;;;;5019970;28;20042;-88
2022/10/02 09:01:09;;;;;;;2.33;0.80;;;;;;;;;;5019653;28;20054;-88
2022/10/02 09:03:51;;;;;;;6.95;1.00;;;;;;;;;;5017479;28;20081;-88
2022/10/02 09:06:29;;;;;;;3.40;0.70;;;;;;;;;;5015209;28;20039;-87
2022/10/02 09:09:19;;;;;;;5.13;1.00;;;;;;;;;;5032236;28;20029;-89
2022/10/02 09:12:04;;;;;;;5.03;0.95;;;;;;;;;;5014571;28;20070;-89
2022/10/02 09:14:51;;;;;;;2.80;0.60;;;;;;;;;;5035721;28;20102;-88
2022/10/02 09:17:44;;;;;;;3.75;0.88;;;;;;;;;;5028823;28;20046;-86
2022/10/02 09:20:28;;;;;;;1.50;0.55;;;;;;;;;;5009231;28;20302;-87
2022/10/02 09:23:08;;;;;;;2.58;0.60;;;;;;;;;;5001759;28;20395;-88
2022/10/02 09:25:36;;;;;;;3.15;1.20;;;;;;;;;;5015615;28;20049;-87
2022/10/02 09:28:29;;;;;;;4.72;1.10;;;;;;;;;;5020446;28;20050;-86
2022/10/02 09:31:13;;;;;;;3.72;0.85;;;;;;;;;;4978437;28;20052;-88
2022/10/02 09:33:53;;;;;;;2.03;0.73;;;;;;;;;;4957812;28;20362;-88
2022/10/02 09:36:38;;;;;;;4.32;0.70;;;;;;;;;;5010299;28;20049;-87
2022/10/02 09:39:25;;;;;;;6.40;1.00;;;;;;;;;;5014207;28;20057;-86
2022/10/02 09:42:07;;;;;;;4.78;1.35;;;;;;;;;;5005958;28;20051;-87
2022/10/02 09:45:06;;;;;;;2.35;0.70;;;;;;;;;;5018229;28;20046;-88
2022/10/02 09:47:52;;;;;;;2.38;0.77;;;;;;;;;;5012033;28;20145;-87
2022/10/02 09:50:18;;;;;;;;;;;;;;;;;;5013385;28;20051;-87
2022/10/02 09:52:59;;;;;;;4.72;0.82;;;;;;;;;;5012321;28;19921;-88
2022/10/02 09:55:48;;;;;;;1.42;0.73;;;;;;;;;;5005569;28;20046;-88
2022/10/02 09:58:28;;;;;;;2.25;0.57;;;;;;;;;;5010850;28;20103;-88
2022/10/02 10:01:02;;;;;;;2.38;0.55;;;;;;;;;;5004053;28;20054;-86
2022/10/02 10:03:51;;;;;;;3.20;0.75;;;;;;;;;;5013323;28;20061;-87
2022/10/02 10:06:39;;;;;;;1.92;0.50;;;;;;;;;;5015338;28;20061;-87
2022/10/02 10:09:24;;;;;;;2.58;0.80;;;;;;;;;;5012996;28;20065;-87
2022/10/02 10:12:09;;;;;;;1.15;0.40;;;;;;;;;;5004941;28;20175;-88
2022/10/02 10:14:53;;;;;;;1.23;0.40;;;;;;;;;;5014583;28;20059;-88
2022/10/02 10:17:40;;;;;;;4.43;0.50;;;;;;;;;;5003293;28;20134;-89
2022/10/02 10:20:29;;;;;;;1.48;0.50;;;;;;;;;;5014657;28;20061;-88
2022/10/02 10:23:15;;;;;;;1.90;0.35;;;;;;;;;;5015009;28;20085;-88
2022/10/02 10:26:01;;;;;;;0.98;0.38;;;;;;;;;;5011625;28;20068;-88
2022/10/02 10:28:27;;;;;;;;;;;;;;;;;;5010644;28;20051;-88
2022/10/02 10:31:11;;;;;;;2.22;0.40;;;;;;;;;;5016228;28;19925;-88
2022/10/02 10:33:45;;;;;;;1.25;0.35;;;;;;;;;;4970944;28;20050;-88
2022/10/02 10:39:25;;;;;;;0.98;0.30;;;;;;;;;;5040202;28;20052;-88
2022/10/02 10:42:10;;;;;;;1.35;0.32;;;;;;;;;;5039479;28;20085;-87
2022/10/02 10:45:04;;;;;;;1.27;0.70;;;;;;;;;;5036276;28;20768;-88
2022/10/02 10:47:45;;;;;;;1.63;0.40;;;;;;;;;;4986472;28;20046;-88
2022/10/02 10:50:34;;;;;;;1.83;0.40;;;;;;;;;;5042539;28;20058;-88
2022/10/02 10:53:07;;;;;;;1.15;0.40;;;;;;;;;;5043879;28;20030;-87
2022/10/02 10:55:45;;;;;;;0.77;0.30;;;;;;;;;;5023204;28;20049;-87
2022/10/02 10:58:15;;;;;;;0.50;0.30;;;;;;;;;;5030656;28;20104;-88
2022/10/02 11:00:49;;;;;;;2.88;0.40;;;;;;;;;;5032396;28;20072;-88
2022/10/02 11:03:29;;;;;;;0.95;0.40;;;;;;;;;;5033720;28;20042;-88
2022/10/02 11:06:11;;;;;;;1.00;0.50;;;;;;;;;;5027578;28;20049;-87
2022/10/02 11:08:53;;;;;;;0.88;0.35;;;;;;;;;;5034008;28;20040;-88
2022/10/02 11:11:21;;;;;;;1.63;0.40;;;;;;;;;;5029159;28;20040;-88
2022/10/02 11:13:57;;;;;;;1.98;0.70;;;;;;;;;;5028807;28;20041;-88
2022/10/02 11:16:23;;;;;;;;;;;;;;;;;;5035957;28;20045;-89
2022/10/02 11:19:03;;;;;;;3.08;1.08;;;;;;;;;;5034224;28;19921;-88
2022/10/02 11:21:40;;;;;;;3.47;0.80;;;;;;;;;;5027526;28;20057;-88
2022/10/02 11:24:26;;;;;;;4.15;0.88;;;;;;;;;;5044501;28;20042;-88
2022/10/02 11:27:05;;;;;;;1.98;0.80;;;;;;;;;;5031199;28;20060;-87
2022/10/02 11:29:48;;;;;;;1.50;0.50;;;;;;;;;;5026639;28;20059;-88
2022/10/02 11:32:31;;;;;;;1.98;0.50;;;;;;;;;;5028751;28;20053;-88
2022/10/02 11:35:15;;;;;;;3.03;0.50;;;;;;;;;;5026418;28;20060;-87
2022/10/02 11:37:55;;;;;;;1.02;0.30;;;;;;;;;;5031990;28;20049;-90
2022/10/02 11:40:31;;;;;;;2.25;0.40;;;;;;;;;;5030543;28;20046;-90
2022/10/02 11:43:12;;;;;;;1.27;0.30;;;;;;;;;;5007931;28;20082;-87
2022/10/02 11:45:54;;;;;;;1.25;0.50;;;;;;;;;;5008038;28;20522;-88
2022/10/02 11:48:33;;;;;;;1.77;0.50;;;;;;;;;;5010262;28;20046;-87
2022/10/02 11:51:09;;;;;;;2.40;0.38;;;;;;;;;;5010604;28;20045;-87
2022/10/02 11:53:43;;;;;;;1.67;0.57;;;;;;;;;;5011150;28;20058;-87
2022/10/02 11:56:16;;;;;;;2.13;0.80;;;;;;;;;;5007423;28;20064;-87
2022/10/02 11:58:48;;;;;;;2.67;0.60;;;;;;;;;;5014174;28;20053;-87
2022/10/02 12:01:20;;;;;;;5.80;1.98;;;;;;;;;;5011177;28;20636;-87
2022/10/02 12:03:53;;;;;;;2.22;1.17;;;;;;;;;;5011365;28;20077;-88
2022/10/02 12:06:27;;;;;;;1.67;0.52;;;;;;;;;;5010481;28;20061;-88
2022/10/02 12:08:57;;;;;;;0.77;0.60;;;;;;;;;;5011262;28;20053;-87
2022/10/02 12:11:31;;;;;;;2.22;0.45;;;;;;;;;;5011025;28;20068;-87
2022/10/02 12:14:07;;;;;;;3.20;0.80;;;;;;;;;;5007147;28;20049;-88
2022/10/02 12:16:40;;;;;;;2.35;0.60;;;;;;;;;;5018560;28;20072;-87
2022/10/02 12:19:15;;;;;;;1.38;0.50;;;;;;;;;;5000261;28;20042;-88
2022/10/02 12:27:26;;;;;;;1.15;0.52;;;;;;;;;;5011368;28;20115;-88
2022/10/02 12:29:59;;;;;;;1.35;0.70;;;;;;;;;;5017641;28;20060;-87
2022/10/02 12:32:44;;;;;;;2.00;0.70;;;;;;;;;;5026764;28;20103;-88
2022/10/02 12:35:26;;;;;;;1.40;0.60;;;;;;;;;;5012440;28;20395;-89
2022/10/02 12:37:56;;;;;;;1.38;0.73;;;;;;;;;;5007605;28;20464;-87
2022/10/02 12:40:29;;;;;;;1.23;0.57;;;;;;;;;;5003579;28;20062;-88
2022/10/02 12:43:19;;;;;;;1.77;0.70;;;;;;;;;;5012127;28;20049;-88
2022/10/02 12:46:00;;;;;;;0.80;0.35;;;;;;;;;;5022510;28;20060;-88
2022/10/02 12:48:45;;;;;;;1.70;0.70;;;;;;;;;;5008807;28;20073;-87
2022/10/02 12:51:27;;;;;;;2.58;0.57;;;;;;;;;;4996356;28;20243;-88
2022/10/02 12:54:14;;;;;;;1.90;0.70;;;;;;;;;;5002367;28;20053;-87
2022/10/02 12:56:53;;;;;;;2.78;0.82;;;;;;;;;;4978636;28;20049;-87
2022/10/02 12:59:25;;;;;;;2.90;0.77;;;;;;;;;;5000901;28;20457;-88
2022/10/02 13:02:09;;;;;;;1.90;0.60;;;;;;;;;;5002663;28;20046;-88
2022/10/02 13:04:46;;;;;;;3.17;0.95;;;;;;;;;;4992695;28;20054;-88
2022/10/02 13:07:29;;;;;;;4.35;0.88;;;;;;;;;;4979093;28;20322;-87
2022/10/02 13:09:59;;;;;;;3.97;0.65;;;;;;;;;;4989647;28;20545;-88
2022/10/02 13:12:35;;;;;;;1.48;0.60;;;;;;;;;;4992347;28;20050;-86
2022/10/02 13:15:21;;;;;;;3.35;0.75;;;;;;;;;;4992860;28;20062;-87
2022/10/02 13:17:51;;;;;;;2.22;0.80;;;;;;;;;;5004853;28;20061;-86
2022/10/02 13:20:25;;;;;;;3.25;0.93;;;;;;;;;;4992583;28;20050;-87
2022/10/02 13:22:57;;;;;;;2.75;0.80;;;;;;;;;;4986896;28;20169;-86
2022/10/02 13:25:33;;;;;;;2.47;0.65;;;;;;;;;;5004090;28;20053;-86
2022/10/02 13:28:07;;;;;;;2.63;0.77;;;;;;;;;;5003473;28;20464;-87
2022/10/02 13:30:36;;;;;;;2.70;1.00;;;;;;;;;;5015319;28;20092;-87
2022/10/02 13:33:08;;;;;;;2.70;0.80;;;;;;;;;;5005339;28;20054;-86
2022/10/02 13:35:43;;;;;;;3.50;0.85;;;;;;;;;;5009497;28;20049;-87
2022/10/02 13:38:17;;;;;;;7.85;1.60;;;;;;;;;;4983244;28;20074;-87
2022/10/02 13:40:48;;;;;;;2.47;0.80;;;;;;;;;;4995758;28;20106;-87
2022/10/02 13:43:25;;;;;;;6.55;0.80;;;;;;;;;;4989564;28;20459;-87
2022/10/02 13:45:56;;;;;;;3.22;0.77;;;;;;;;;;5015030;28;20062;-88
2022/10/02 13:48:29;;;;;;;4.40;0.60;;;;;;;;;;5009253;28;20068;-87
2022/10/02 13:51:01;;;;;;;4.88;1.10;;;;;;;;;;5001540;28;20042;-87
2022/10/02 13:53:37;;;;;;;2.17;0.50;;;;;;;;;;4991506;28;20056;-87
2022/10/02 13:56:08;;;;;;;1.90;0.45;;;;;;;;;;4997138;28;20054;-87
2022/10/02 13:58:41;;;;;;;1.23;0.40;;;;;;;;;;4995713;28;20054;-87
2022/10/02 14:01:16;;;;;;;2.42;0.50;;;;;;;;;;4981089;28;20085;-86
2022/10/02 14:03:53;;;;;;;2.03;0.40;;;;;;;;;;5006385;28;20046;-87
2022/10/02 14:06:24;;;;;;;1.13;0.50;;;;;;;;;;4995449;28;20222;-87
2022/10/02 14:09:00;;;;;;;1.88;0.30;;;;;;;;;;4985178;28;20789;-86
2022/10/02 14:11:34;;;;;;;1.00;0.25;;;;;;;;;;4995620;28;20065;-87
2022/10/02 14:14:06;;;;;;;1.10;0.40;;;;;;;;;;4995053;28;20468;-87
2022/10/02 14:16:44;;;;;;;0.80;0.30;;;;;;;;;;4994780;28;20504;-87
2022/10/02 14:19:20;;;;;;;2.35;0.30;;;;;;;;;;4997978;28;20210;-85
2022/10/02 14:22:00;;;;;;;0.70;0.38;;;;;;;;;;5002953;28;20062;-86
2022/10/02 14:25:02;;;;;;;1.38;0.43;;;;;;;;;;4981966;28;20057;-86
2022/10/02 14:27:47;;;;;;;0.98;0.50;;;;;;;;;;4994707;28;20090;-85
2022/10/02 14:30:18;;;;;;;1.70;0.73;;;;;;;;;;4995223;28;20061;-87
2022/10/02 14:32:50;;;;;;;1.95;0.60;;;;;;;;;;4994827;28;20766;-87
2022/10/02 14:35:34;;;;;;;7.47;0.90;;;;;;;;;;5009843;28;20050;-87
2022/10/02 14:38:15;;;;;;;3.15;0.88;;;;;;;;;;4995164;28;20062;-88
2022/10/02 14:40:50;;;;;;;2.70;1.10;;;;;;;;;;4995335;28;20062;-87
2022/10/02 14:43:32;;;;;;;2.75;0.90;;;;;;;;;;4994749;28;20051;-88
2022/10/02 14:46:02;;;;;;;3.95;1.00;;;;;;;;;;4994942;28;20054;-88
2022/10/02 14:48:44;;;;;;;1.25;0.77;;;;;;;;;;4999185;28;20050;-88
2022/10/02 14:51:21;;;;;;;2.28;0.90;;;;;;;;;;5023528;28;20104;-88
2022/10/02 14:53:51;;;;;;;2.80;1.08;;;;;;;;;;5014413;28;20053;-87
2022/10/02 14:56:29;;;;;;;2.45;0.80;;;;;;;;;;5014409;28;20482;-87
2022/10/02 14:59:03;;;;;;;3.50;1.00;;;;;;;;;;5005836;28;20054;-88
2022/10/02 15:01:30;;;;;;;1.83;0.63;;;;;;;;;;5012789;28;20054;-87
2022/10/02 15:04:07;;;;;;;1.00;0.55;;;;;;;;;;5014768;28;20041;-87
2022/10/02 15:06:40;;;;;;;2.30;0.82;;;;;;;;;;5018432;28;20057;-87
2022/10/02 15:09:12;;;;;;;4.15;0.60;;;;;;;;;;5013759;28;20372;-87
2022/10/02 15:11:57;;;;;;;1.75;0.60;;;;;;;;;;5014032;28;20057;-88
2022/10/02 15:14:26;;;;;;;2.70;1.00;;;;;;;;;;4994782;28;20054;-87
2022/10/02 15:19:45;;;;;;;1.17;0.57;;;;;;;;;;5021122;28;20048;-87
2022/10/02 15:22:18;;;;;;;2.22;0.70;;;;;;;;;;5030213;28;20057;-87
2022/10/02 15:24:45;;;;;;;2.33;0.88;;;;;;;;;;5013776;28;20057;-88
2022/10/02 15:27:20;;;;;;;2.28;0.70;;;;;;;;;;5013345;28;20065;-87
2022/10/02 15:29:54;;;;;;;1.95;0.90;;;;;;;;;;5013897;28;20177;-88
2022/10/02 15:32:35;;;;;;;1.20;0.60;;;;;;;;;;5013031;28;20057;-88
2022/10/02 15:35:05;;;;;;;3.22;0.70;;;;;;;;;;5018942;28;20041;-87